createdAt,value
2022-09-04T00:02:19.630Z,100.00
2022-09-04T00:05:05.809Z,100.00
2022-09-04T00:08:12.761Z,100.00
2022-09-04T00:11:07.831Z,100.00
2022-09-04T00:14:01.877Z,100.00
2022-09-04T00:16:35.961Z,100.00
2022-09-04T00:19:20.851Z,100.00
2022-09-04T00:21:59.061Z,100.00
2022-09-04T00:24:38.853Z,100.00
2022-09-04T00:27:17.793Z,100.00
2022-09-04T00:30:01.330Z,100.00
2022-09-04T00:33:15.998Z,100.00
2022-09-04T00:36:00.112Z,100.00
2022-09-04T00:38:49.566Z,100.00
2022-09-04T00:41:47.176Z,100.00
2022-09-04T00:44:41.327Z,100.00
2022-09-04T00:47:47.018Z,100.00
2022-09-04T00:50:47.786Z,100.00
2022-09-04T00:56:29.944Z,100.00
2022-09-04T00:59:40.861Z,100.00
2022-09-04T01:02:39.012Z,100.00
2022-09-04T01:06:10.250Z,100.00
2022-09-04T01:08:56.445Z,100.00
2022-09-04T01:11:43.228Z,100.00
2022-09-04T01:14:42.609Z,100.00
2022-09-04T01:17:44.979Z,100.00
2022-09-04T01:20:38.270Z,100.00
2022-09-04T01:23:24.457Z,100.00
2022-09-04T01:26:32.555Z,100.00
2022-09-04T01:29:37.880Z,100.00
2022-09-04T01:32:36.659Z,100.00
2022-09-04T01:35:33.539Z,100.00
2022-09-04T01:38:37.068Z,100.00
2022-09-04T01:41:24.460Z,100.00
2022-09-04T01:44:05.715Z,100.00
2022-09-04T01:47:05.763Z,100.00
2022-09-04T01:49:59.230Z,100.00
2022-09-04T01:52:43.303Z,100.00
2022-09-04T01:55:14.207Z,100.00
2022-09-04T01:57:56.972Z,100.00
2022-09-04T02:00:29.233Z,100.00
2022-09-04T02:03:21.080Z,100.00
2022-09-04T02:06:23.380Z,100.00
2022-09-04T02:09:19.364Z,100.00
2022-09-04T02:12:04.121Z,100.00
2022-09-04T02:14:43.042Z,100.00
2022-09-04T02:17:24.695Z,100.00
2022-09-04T02:20:08.327Z,100.00
2022-09-04T02:23:03.430Z,100.00
2022-09-04T02:25:39.009Z,100.00
2022-09-04T02:28:53.651Z,100.00
2022-09-04T02:31:30.763Z,100.00
2022-09-04T02:34:11.350Z,100.00
2022-09-04T02:36:47.253Z,100.00
2022-09-04T02:39:45.890Z,100.00
2022-09-04T02:42:29.162Z,100.00
2022-09-04T02:45:23.143Z,100.00
2022-09-04T02:48:14.872Z,100.00
2022-09-04T02:51:13.912Z,100.00
2022-09-04T02:54:09.120Z,100.00
2022-09-04T02:56:45.303Z,100.00
2022-09-04T02:59:31.587Z,100.00
2022-09-04T03:02:11.582Z,100.00
2022-09-04T03:04:48.826Z,100.00
2022-09-04T03:07:34.910Z,100.00
2022-09-04T03:10:14.340Z,100.00
2022-09-04T03:12:55.147Z,100.00
2022-09-04T03:15:38.366Z,100.00
2022-09-04T03:18:50.759Z,100.00
2022-09-04T03:21:32.383Z,100.00
2022-09-04T03:24:18.615Z,100.00
2022-09-04T03:27:02.924Z,100.00
2022-09-04T03:29:37.111Z,100.00
2022-09-04T03:32:20.855Z,100.00
2022-09-04T03:34:54.229Z,97.04
2022-09-04T03:37:49.485Z,96.50
2022-09-04T03:40:40.327Z,95.48
2022-09-04T03:43:38.556Z,97.42
2022-09-04T03:46:34.928Z,96.16
2022-09-04T03:49:25.677Z,95.58
2022-09-04T03:52:26.263Z,95.42
2022-09-04T03:55:18.332Z,95.24
2022-09-04T03:58:06.775Z,96.35
2022-09-04T04:01:09.129Z,94.28
2022-09-04T04:03:52.146Z,93.22
2022-09-04T04:06:34.677Z,92.96
2022-09-04T04:09:20.760Z,91.86
2022-09-04T04:12:08.198Z,94.31
2022-09-04T04:15:02.937Z,93.98
2022-09-04T04:18:05.843Z,92.96
2022-09-04T04:20:51.348Z,93.92
2022-09-04T04:23:32.546Z,92.02
2022-09-04T04:26:22.661Z,93.57
2022-09-04T04:29:17.937Z,94.07
2022-09-04T04:31:51.822Z,92.87
2022-09-04T04:34:37.320Z,94.13
2022-09-04T04:37:17.374Z,90.96
2022-09-04T04:40:03.311Z,92.20
2022-09-04T04:42:58.091Z,92.07
2022-09-04T04:45:38.093Z,92.18
2022-09-04T04:48:15.694Z,91.43
2022-09-04T04:51:20.810Z,93.13
2022-09-04T04:53:54.629Z,91.45
2022-09-04T04:56:33.677Z,92.74
2022-09-04T04:59:43.367Z,92.02
2022-09-04T05:02:29.227Z,93.48
2022-09-04T05:05:43.102Z,91.82
2022-09-04T05:09:04.431Z,89.43
2022-09-04T05:11:56.256Z,87.81
2022-09-04T05:14:51.950Z,88.92
2022-09-04T05:17:49.250Z,89.47
2022-09-04T05:20:36.115Z,88.59
2022-09-04T05:23:24.893Z,90.44
2022-09-04T05:26:31.427Z,91.03
2022-09-04T05:29:11.266Z,91.21
2022-09-04T05:31:56.274Z,90.91
2022-09-04T05:35:02.590Z,90.61
2022-09-04T05:37:42.710Z,88.30
2022-09-04T05:40:53.773Z,88.80
2022-09-04T05:43:43.918Z,90.48
2022-09-04T05:46:20.756Z,89.24
2022-09-04T05:49:23.626Z,90.46
2022-09-04T05:52:01.453Z,88.59
2022-09-04T05:54:56.360Z,89.71
2022-09-04T05:58:05.937Z,90.29
2022-09-04T06:00:54.849Z,90.32
2022-09-04T06:03:36.814Z,89.97
2022-09-04T06:06:16.957Z,89.48
2022-09-04T06:09:19.303Z,87.31
2022-09-04T06:12:19.307Z,87.99
2022-09-04T06:15:05.875Z,88.79
2022-09-04T06:17:53.284Z,87.48
2022-09-04T06:20:39.500Z,86.56
2022-09-04T06:23:39.489Z,86.74
2022-09-04T06:26:44.993Z,88.46
2022-09-04T06:29:28.752Z,86.84
2022-09-04T06:32:09.114Z,85.85
2022-09-04T06:34:56.431Z,85.11
2022-09-04T06:37:42.831Z,87.34
2022-09-04T06:40:41.471Z,87.00
2022-09-04T06:43:21.980Z,88.19
2022-09-04T06:46:16.719Z,88.07
2022-09-04T06:49:10.862Z,89.59
2022-09-04T06:51:47.793Z,88.78
2022-09-04T06:54:33.472Z,87.33
2022-09-04T06:57:26.941Z,87.43
2022-09-04T07:00:19.911Z,90.10
2022-09-04T07:03:23.969Z,89.18
2022-09-04T07:06:05.080Z,89.32
2022-09-04T07:08:47.409Z,87.79
2022-09-04T07:11:21.972Z,89.46
2022-09-04T07:14:16.806Z,89.55
2022-09-04T07:17:21.898Z,88.99
2022-09-04T07:20:30.491Z,88.74
2022-09-04T07:23:22.465Z,88.50
2022-09-04T07:26:15.070Z,88.68
2022-09-04T07:29:22.544Z,89.98
2022-09-04T07:32:00.019Z,89.72
2022-09-04T07:34:58.449Z,89.02
2022-09-04T07:37:43.764Z,88.01
2022-09-04T07:40:22.687Z,87.67
2022-09-04T07:43:14.856Z,87.37
2022-09-04T07:45:44.784Z,87.81
2022-09-04T07:48:35.776Z,86.91
2022-09-04T07:51:17.531Z,86.94
2022-09-04T07:54:09.457Z,87.74
2022-09-04T07:57:14.462Z,91.08
2022-09-04T08:00:02.966Z,92.38
2022-09-04T08:03:04.502Z,93.52
2022-09-04T08:05:38.340Z,93.18
2022-09-04T08:08:25.187Z,94.41
2022-09-04T08:11:05.022Z,93.44
2022-09-04T08:14:30.904Z,93.17
2022-09-04T08:17:27.116Z,93.67
2022-09-04T08:20:08.151Z,92.37
2022-09-04T08:22:43.479Z,93.11
2022-09-04T08:25:26.012Z,92.12
2022-09-04T08:28:11.351Z,93.06
2022-09-04T08:30:51.417Z,91.66
2022-09-04T08:33:32.565Z,91.97
2022-09-04T08:36:18.412Z,91.45
2022-09-04T08:38:53.810Z,91.07
2022-09-04T08:41:44.643Z,91.27
2022-09-04T08:44:30.401Z,91.23
2022-09-04T08:47:21.622Z,90.89
2022-09-04T08:50:15.633Z,92.23
2022-09-04T08:53:03.930Z,89.72
2022-09-04T08:55:42.504Z,89.39
2022-09-04T08:58:38.869Z,89.91
2022-09-04T09:01:31.320Z,89.65
2022-09-04T09:04:04.906Z,90.24
2022-09-04T09:07:06.525Z,89.79
2022-09-04T09:09:36.667Z,89.46
2022-09-04T09:12:41.947Z,90.17
2022-09-04T09:15:28.205Z,90.43
2022-09-04T09:18:02.833Z,90.27
2022-09-04T09:20:49.250Z,89.72
2022-09-04T09:23:23.336Z,89.25
2022-09-04T09:26:29.167Z,89.13
2022-09-04T09:29:30.747Z,89.92
2022-09-04T09:32:26.038Z,90.05
2022-09-04T09:34:56.575Z,89.02
2022-09-04T09:37:49.392Z,89.21
2022-09-04T09:40:50.254Z,89.35
2022-09-04T09:43:51.737Z,88.93
2022-09-04T09:46:41.202Z,88.74
2022-09-04T09:50:19.345Z,89.61
2022-09-04T09:53:11.403Z,88.82
2022-09-04T09:56:35.546Z,89.33
2022-09-04T09:59:02.971Z,89.10
2022-09-04T10:01:30.801Z,90.47
2022-09-04T10:04:37.386Z,89.59
2022-09-04T10:07:24.553Z,88.27
2022-09-04T10:10:19.126Z,88.02
2022-09-04T10:13:08.780Z,86.18
2022-09-04T10:16:11.022Z,82.39
2022-09-04T10:19:05.510Z,81.89
2022-09-04T10:22:01.992Z,80.26
2022-09-04T10:25:05.884Z,82.75
2022-09-04T10:27:44.069Z,84.65
2022-09-04T10:30:22.563Z,84.40
2022-09-04T10:33:13.484Z,84.56
2022-09-04T10:36:11.716Z,84.78
2022-09-04T10:39:21.588Z,81.11
2022-09-04T10:42:30.775Z,84.47
2022-09-04T10:45:15.664Z,81.27
2022-09-04T10:47:53.642Z,81.72
2022-09-04T10:50:39.479Z,82.76
2022-09-04T10:53:14.551Z,84.04
2022-09-04T10:56:19.163Z,84.65
2022-09-04T10:59:19.488Z,83.85
2022-09-04T11:01:53.337Z,84.01
2022-09-04T11:05:05.785Z,84.68
2022-09-04T11:07:45.125Z,85.97
2022-09-04T11:10:41.218Z,85.47
2022-09-04T11:13:27.390Z,84.68
2022-09-04T11:15:58.045Z,86.53
2022-09-04T11:19:03.272Z,85.25
2022-09-04T11:21:33.836Z,85.25
2022-09-04T11:24:29.184Z,86.14
2022-09-04T11:27:20.271Z,86.80
2022-09-04T11:30:04.485Z,85.33
2022-09-04T11:32:58.809Z,85.95
2022-09-04T11:35:50.805Z,85.87
2022-09-04T11:38:46.613Z,84.87
2022-09-04T11:41:47.327Z,84.45
2022-09-04T11:44:37.163Z,83.63
2022-09-04T11:47:42.229Z,82.24
2022-09-04T11:50:40.121Z,81.89
2022-09-04T11:53:33.794Z,81.17
2022-09-04T11:56:38.588Z,82.30
2022-09-04T11:59:24.153Z,79.83
2022-09-04T12:02:10.578Z,79.50
2022-09-04T12:05:10.379Z,79.73
2022-09-04T12:07:47.088Z,79.32
2022-09-04T12:10:39.874Z,80.35
2022-09-04T12:13:24.942Z,80.91
2022-09-04T12:16:22.666Z,81.16
2022-09-04T12:19:14.507Z,81.09
2022-09-04T12:21:54.776Z,81.48
2022-09-04T12:24:41.289Z,80.99
2022-09-04T12:27:15.287Z,82.04
2022-09-04T12:30:01.603Z,83.07
2022-09-04T12:32:47.836Z,81.50
2022-09-04T12:35:37.294Z,81.99
2022-09-04T12:38:13.626Z,82.05
2022-09-04T12:41:08.963Z,82.43
2022-09-04T12:43:54.946Z,79.64
2022-09-04T12:46:47.157Z,78.96
2022-09-04T12:49:41.302Z,80.44
2022-09-04T12:52:24.266Z,81.48
2022-09-04T12:55:12.819Z,80.94
2022-09-04T12:58:07.040Z,80.85
2022-09-04T13:00:48.427Z,81.66
2022-09-04T13:03:30.843Z,80.89
2022-09-04T13:06:23.777Z,80.58
2022-09-04T13:09:00.104Z,80.56
2022-09-04T13:11:42.777Z,78.88
2022-09-04T13:14:41.697Z,79.28
2022-09-04T13:17:24.520Z,78.85
2022-09-04T13:20:09.253Z,79.29
2022-09-04T13:23:10.977Z,77.23
2022-09-04T13:26:11.195Z,76.76
2022-09-04T13:29:13.672Z,75.79
2022-09-04T13:32:20.651Z,77.05
2022-09-04T13:35:03.843Z,75.46
2022-09-04T13:38:03.285Z,75.61
2022-09-04T13:41:06.808Z,76.83
2022-09-04T13:44:01.004Z,76.43
2022-09-04T13:46:40.713Z,76.59
2022-09-04T13:49:27.156Z,77.50
2022-09-04T13:52:05.771Z,77.46
2022-09-04T13:54:42.565Z,76.50
2022-09-04T13:57:20.906Z,77.09
2022-09-04T13:59:50.088Z,76.82
2022-09-04T14:02:23.604Z,75.65
2022-09-04T14:05:21.589Z,75.38
2022-09-04T14:07:58.187Z,75.61
2022-09-04T14:11:07.678Z,76.60
2022-09-04T14:14:01.084Z,76.51
2022-09-04T14:16:33.376Z,75.68
2022-09-04T14:19:30.151Z,76.01
2022-09-04T14:22:19.777Z,76.66
2022-09-04T14:28:23.129Z,78.16
2022-09-04T14:30:29.329Z,76.94
2022-09-04T14:31:11.038Z,76.68
2022-09-04T14:33:51.076Z,77.36
2022-09-04T14:36:33.162Z,77.59
2022-09-04T14:39:18.063Z,76.89
2022-09-04T14:41:47.124Z,77.59
2022-09-04T14:44:33.367Z,78.07
2022-09-04T14:47:39.126Z,78.00
2022-09-04T14:50:18.394Z,76.33
2022-09-04T14:52:58.449Z,75.61
2022-09-04T14:55:32.666Z,75.25
2022-09-04T14:58:20.689Z,75.07
2022-09-04T15:01:03.289Z,75.00
2022-09-04T15:04:22.838Z,75.58
2022-09-04T15:07:11.392Z,75.86
2022-09-04T15:09:43.371Z,75.47
2022-09-04T15:12:27.063Z,77.40
2022-09-04T15:15:08.342Z,75.84
2022-09-04T15:17:45.624Z,76.04
2022-09-04T15:20:22.234Z,76.21
2022-09-04T15:22:58.524Z,75.18
2022-09-04T15:25:57.784Z,75.56
2022-09-04T15:28:32.232Z,75.25
2022-09-04T15:31:18.103Z,75.96
2022-09-04T15:33:48.629Z,76.10
2022-09-04T15:36:23.078Z,78.03
2022-09-04T15:39:18.573Z,77.76
2022-09-04T15:41:52.950Z,76.15
2022-09-04T15:44:38.961Z,76.94
2022-09-04T15:47:22.991Z,76.01
2022-09-04T15:50:00.355Z,74.76
2022-09-04T15:52:43.749Z,75.60
2022-09-04T15:55:25.165Z,75.58
2022-09-04T15:58:15.098Z,74.78
2022-09-04T16:01:10.294Z,75.78
2022-09-04T16:04:07.048Z,75.82
2022-09-04T16:06:42.397Z,76.11
2022-09-04T16:09:20.418Z,76.86
2022-09-04T16:12:12.441Z,76.75
2022-09-04T16:14:46.440Z,78.22
2022-09-04T16:17:27.729Z,78.34
2022-09-04T16:20:40.019Z,78.21
2022-09-04T16:23:10.134Z,78.49
2022-09-04T16:25:57.695Z,78.90
2022-09-04T16:28:38.735Z,78.30
2022-09-04T16:31:12.051Z,77.13
2022-09-04T16:33:47.843Z,78.77
2022-09-04T16:36:51.193Z,78.08
2022-09-04T16:39:24.957Z,78.98
2022-09-04T16:42:08.016Z,81.24
2022-09-04T16:44:42.927Z,80.56
2022-09-04T16:47:40.814Z,81.65
2022-09-04T16:50:33.080Z,81.62
2022-09-04T16:53:33.548Z,83.31
2022-09-04T16:56:22.150Z,83.23
2022-09-04T16:58:54.481Z,82.96
2022-09-04T17:01:40.599Z,83.47
2022-09-04T17:04:36.901Z,84.08
2022-09-04T17:07:16.954Z,84.95
2022-09-04T17:10:05.358Z,86.85
2022-09-04T17:12:58.542Z,88.14
2022-09-04T17:15:53.383Z,89.21
2022-09-04T17:18:28.460Z,89.16
2022-09-04T17:25:34.103Z,89.00
2022-09-04T17:29:01.277Z,89.19
2022-09-04T17:29:08.974Z,89.36
2022-09-04T17:30:31.755Z,88.40
2022-09-04T17:39:01.195Z,88.02
2022-09-04T17:40:43.032Z,87.89
2022-09-04T17:40:53.995Z,88.64
2022-09-04T17:42:20.467Z,90.79
2022-09-04T17:45:30.247Z,89.26
2022-09-04T17:48:22.521Z,91.12
2022-09-04T17:51:04.393Z,90.52
2022-09-04T17:53:49.310Z,92.38
2022-09-04T17:56:30.932Z,89.99
2022-09-04T17:59:32.027Z,87.28
2022-09-04T18:02:13.650Z,86.96
2022-09-04T18:04:54.319Z,86.22
2022-09-04T18:08:06.916Z,86.18
2022-09-04T18:11:01.309Z,85.53
2022-09-04T18:13:50.781Z,84.55
2022-09-04T18:16:34.142Z,85.67
2022-09-04T18:19:24.805Z,87.04
2022-09-04T18:22:26.342Z,86.52
2022-09-04T18:25:25.921Z,86.18
2022-09-04T18:28:14.603Z,86.11
2022-09-04T18:37:10.577Z,86.15
2022-09-04T18:37:26.560Z,85.94
2022-09-04T18:37:47.290Z,85.24
2022-09-04T18:45:35.801Z,87.32
2022-09-04T18:50:30.300Z,86.75
2022-09-04T18:50:33.641Z,86.77
2022-09-04T18:51:18.768Z,84.41
2022-09-04T18:54:01.737Z,84.34
2022-09-04T18:56:45.267Z,84.59
2022-09-04T18:59:16.537Z,85.59
2022-09-04T19:02:23.629Z,86.15
2022-09-04T19:04:55.765Z,85.03
2022-09-04T19:08:03.409Z,84.75
2022-09-04T19:10:33.239Z,84.69
2022-09-04T19:13:29.039Z,89.80
2022-09-04T19:16:41.132Z,92.70
2022-09-04T19:19:24.493Z,92.60
2022-09-04T19:22:28.451Z,93.16
2022-09-04T19:25:07.834Z,93.46
2022-09-04T19:27:55.030Z,93.27
2022-09-04T19:31:06.037Z,92.27
2022-09-04T19:34:07.265Z,92.55
2022-09-04T19:36:49.561Z,92.88
2022-09-04T19:45:56.104Z,93.09
2022-09-04T19:46:15.958Z,92.77
2022-09-04T19:46:49.658Z,92.81
2022-09-04T19:53:32.177Z,92.43
2022-09-04T19:55:43.539Z,92.01
2022-09-04T19:58:25.478Z,91.99
2022-09-04T20:01:02.657Z,91.56
2022-09-04T20:03:35.840Z,91.34
2022-09-04T20:06:32.025Z,91.55
2022-09-04T20:09:13.395Z,90.70
2022-09-04T20:11:55.685Z,91.35
2022-09-04T20:14:31.620Z,91.00
2022-09-04T20:17:17.980Z,91.40
2022-09-04T20:19:53.849Z,91.66
2022-09-04T20:22:47.366Z,91.44
2022-09-04T20:26:00.799Z,91.86
2022-09-04T20:28:44.255Z,92.13
2022-09-04T20:31:36.549Z,91.78
2022-09-04T20:34:21.227Z,91.96
2022-09-04T20:36:59.821Z,92.56
2022-09-04T20:39:39.243Z,93.10
2022-09-04T20:42:35.071Z,92.89
2022-09-04T20:48:53.726Z,93.54
2022-09-04T20:52:54.029Z,93.31
2022-09-04T20:53:00.200Z,94.13
2022-09-04T20:55:05.016Z,94.93
2022-09-04T21:00:54.797Z,95.19
2022-09-04T21:03:23.560Z,95.83
2022-09-04T21:04:23.749Z,95.74
2022-09-04T21:07:27.221Z,96.20
2022-09-04T21:10:11.276Z,96.24
2022-09-04T21:12:47.816Z,96.10
2022-09-04T21:15:57.076Z,96.18
2022-09-04T21:19:14.337Z,96.44
2022-09-04T21:22:33.056Z,96.49
2022-09-04T21:25:30.625Z,95.98
2022-09-04T21:28:19.060Z,96.44
2022-09-04T21:30:55.948Z,96.85
2022-09-04T21:33:35.894Z,96.46
2022-09-04T21:36:31.899Z,96.88
2022-09-04T21:39:42.761Z,97.05
2022-09-04T21:42:46.999Z,96.82
2022-09-04T21:45:23.821Z,97.64
2022-09-04T21:48:25.125Z,98.02
2022-09-04T21:51:28.444Z,98.16
2022-09-04T21:54:34.667Z,98.04
2022-09-04T22:02:27.767Z,98.17
2022-09-04T22:02:40.286Z,98.51
2022-09-04T22:13:39.969Z,99.23
2022-09-04T22:13:43.201Z,99.25
2022-09-04T22:16:05.771Z,99.83
2022-09-04T22:19:00.318Z,98.58
2022-09-04T22:28:56.966Z,98.80
2022-09-04T22:38:28.219Z,100.00
2022-09-04T22:41:26.718Z,99.91
2022-09-04T22:48:09.954Z,100.00
2022-09-04T22:50:50.973Z,100.00
2022-09-04T22:53:31.634Z,100.00
2022-09-04T22:56:24.125Z,100.00
2022-09-04T22:59:27.214Z,100.00
2022-09-04T23:05:40.091Z,100.00
2022-09-04T23:13:44.815Z,100.00
2022-09-04T23:13:56.781Z,100.00
2022-09-04T23:15:08.451Z,100.00
2022-09-04T23:23:27.439Z,100.00
2022-09-04T23:26:33.703Z,100.00
2022-09-04T23:26:57.258Z,100.00
2022-09-04T23:27:39.410Z,100.00
2022-09-04T23:30:10.266Z,100.00
2022-09-04T23:33:11.349Z,100.00
2022-09-04T23:36:29.653Z,100.00
2022-09-04T23:39:53.866Z,99.91
2022-09-04T23:42:52.835Z,100.00
2022-09-04T23:46:01.293Z,100.00
2022-09-04T23:48:43.014Z,100.00
2022-09-04T23:51:43.948Z,100.00
2022-09-04T23:54:35.973Z,100.00
2022-09-04T23:57:25.989Z,100.00
